createdAt,value
2018-06-02T00:00:58.370Z,19.80
2018-06-02T00:03:32.089Z,19.80
2018-06-02T00:06:05.669Z,19.80
2018-06-02T00:08:39.496Z,19.80
2018-06-02T00:11:13.105Z,19.80
2018-06-02T00:13:46.705Z,19.80
2018-06-02T00:16:20.409Z,19.80
2018-06-02T00:18:53.984Z,19.80
2018-06-02T00:21:27.489Z,19.90
2018-06-02T00:24:01.011Z,19.90
2018-06-02T00:26:34.615Z,19.80
2018-06-02T00:29:08.144Z,19.80
2018-06-02T00:31:41.732Z,19.80
2018-06-02T00:34:16.397Z,19.80
2018-06-02T00:36:50.084Z,19.80
2018-06-02T00:39:23.724Z,19.80
2018-06-02T00:41:57.784Z,19.80
2018-06-02T00:44:34.480Z,19.80
2018-06-02T00:47:08.904Z,19.80
2018-06-02T00:49:43.240Z,19.80
2018-06-02T00:52:16.831Z,19.80
2018-06-02T00:55:03.172Z,19.80
2018-06-02T00:57:36.732Z,19.80
2018-06-02T01:00:10.934Z,19.80
2018-06-02T01:02:45.481Z,19.70
2018-06-02T01:05:19.090Z,19.70
2018-06-02T01:07:53.925Z,19.60
2018-06-02T01:10:28.540Z,19.60
2018-06-02T01:13:02.244Z,19.60
2018-06-02T01:15:36.988Z,19.50
2018-06-02T01:18:10.687Z,19.40
2018-06-02T01:20:44.385Z,19.40
2018-06-02T01:23:18.128Z,19.40
2018-06-02T01:25:51.679Z,19.40
2018-06-02T01:28:25.276Z,19.40
2018-06-02T01:30:59.427Z,19.40
2018-06-02T01:33:33.927Z,19.40
2018-06-02T01:36:07.535Z,19.40
2018-06-02T01:38:41.494Z,19.40
2018-06-02T01:41:15.957Z,19.40
2018-06-02T01:43:50.468Z,19.30
2018-06-02T01:46:24.188Z,19.30
2018-06-02T01:48:57.792Z,19.30
2018-06-02T01:51:32.088Z,19.30
2018-06-02T01:54:05.802Z,19.30
2018-06-02T01:56:40.122Z,19.20
2018-06-02T01:59:13.880Z,19.20
2018-06-02T02:01:47.533Z,19.30
2018-06-02T02:04:21.090Z,19.20
2018-06-02T02:06:54.842Z,19.30
2018-06-02T02:09:28.422Z,19.20
2018-06-02T02:12:02.953Z,19.10
2018-06-02T02:14:36.684Z,19.10
2018-06-02T02:17:10.272Z,19.10
2018-06-02T02:19:44.584Z,19.10
2018-06-02T02:22:19.016Z,19.10
2018-06-02T02:24:52.608Z,19.10
2018-06-02T02:27:26.235Z,19.10
2018-06-02T02:29:59.894Z,19.10
2018-06-02T02:32:33.425Z,19.10
2018-06-02T02:35:07.724Z,19.00
2018-06-02T02:37:41.371Z,19.00
2018-06-02T02:40:15.724Z,19.00
2018-06-02T02:42:49.357Z,19.00
2018-06-02T02:45:22.891Z,19.00
2018-06-02T02:47:56.444Z,19.00
2018-06-02T02:50:30.779Z,18.90
2018-06-02T02:53:04.310Z,18.90
2018-06-02T02:55:37.877Z,18.90
2018-06-02T02:58:11.485Z,18.90
2018-06-02T03:00:45.023Z,18.90
2018-06-02T03:03:19.749Z,18.90
2018-06-02T03:05:54.283Z,18.90
2018-06-02T03:08:27.877Z,18.90
2018-06-02T03:11:01.514Z,18.90
2018-06-02T03:13:36.873Z,18.80
2018-06-02T03:16:10.790Z,18.80
2018-06-02T03:18:45.732Z,18.80
2018-06-02T03:21:19.285Z,18.80
2018-06-02T03:23:52.824Z,18.90
2018-06-02T03:26:26.456Z,18.90
2018-06-02T03:29:00.593Z,18.80
2018-06-02T03:31:34.945Z,18.80
2018-06-02T03:34:08.587Z,18.80
2018-06-02T03:36:42.973Z,18.80
2018-06-02T03:39:16.564Z,18.80
2018-06-02T03:41:50.121Z,18.80
2018-06-02T03:44:23.761Z,18.80
2018-06-02T03:46:59.102Z,18.70
2018-06-02T03:49:34.088Z,18.70
2018-06-02T03:52:08.623Z,18.60
2018-06-02T03:54:42.208Z,18.60
2018-06-02T03:57:17.415Z,18.60
2018-06-02T03:59:52.546Z,18.60
2018-06-02T04:02:26.177Z,18.60
2018-06-02T04:04:59.757Z,18.60
2018-06-02T04:07:34.101Z,18.70
2018-06-02T04:10:08.800Z,18.70
2018-06-02T04:12:42.702Z,18.70
2018-06-02T04:15:16.230Z,18.70
2018-06-02T04:17:50.038Z,18.70
2018-06-02T04:20:24.372Z,18.60
2018-06-02T04:22:58.696Z,18.60
2018-06-02T04:25:33.604Z,18.60
2018-06-02T04:28:07.940Z,18.50
2018-06-02T04:30:41.508Z,18.40
2018-06-02T04:33:15.302Z,18.40
2018-06-02T04:35:48.824Z,18.40
2018-06-02T04:38:22.551Z,18.40
2018-06-02T04:40:56.209Z,18.50
2018-06-02T04:43:29.932Z,18.40
2018-06-02T04:46:03.442Z,18.50
2018-06-02T04:48:38.660Z,18.40
2018-06-02T04:51:12.239Z,18.40
2018-06-02T04:53:46.061Z,18.30
2018-06-02T04:56:19.730Z,18.30
2018-06-02T04:58:53.247Z,18.30
2018-06-02T05:01:26.948Z,18.30
2018-06-02T05:04:01.670Z,18.30
2018-06-02T05:06:35.423Z,18.30
2018-06-02T05:09:08.993Z,18.20
2018-06-02T05:11:42.543Z,18.20
2018-06-02T05:14:16.155Z,18.10
2018-06-02T05:16:49.787Z,18.10
2018-06-02T05:19:23.359Z,18.00
2018-06-02T05:21:56.918Z,18.00
2018-06-02T05:24:31.510Z,17.90
2018-06-02T05:27:05.257Z,18.00
2018-06-02T05:29:39.089Z,17.90
2018-06-02T05:32:13.589Z,17.90
2018-06-02T05:34:48.337Z,17.90
2018-06-02T05:37:22.068Z,17.80
2018-06-02T05:39:55.602Z,17.80
2018-06-02T05:42:29.080Z,17.70
2018-06-02T05:45:02.785Z,17.70
2018-06-02T05:47:37.559Z,17.70
2018-06-02T05:50:12.272Z,17.80
2018-06-02T05:52:46.767Z,17.70
2018-06-02T05:55:21.155Z,17.90
2018-06-02T06:00:58.499Z,18.00
2018-06-02T06:03:33.230Z,18.00
2018-06-02T06:06:07.926Z,18.10
2018-06-02T06:08:41.666Z,18.10
2018-06-02T06:11:18.739Z,18.30
2018-06-02T06:13:53.127Z,18.30
2018-06-02T06:16:30.127Z,18.40
2018-06-02T06:19:03.745Z,18.40
2018-06-02T06:21:39.675Z,18.40
2018-06-02T06:24:17.873Z,18.40
2018-06-02T06:26:53.424Z,18.40
2018-06-02T06:29:26.961Z,18.40
2018-06-02T06:32:00.597Z,18.30
2018-06-02T06:34:37.860Z,18.20
2018-06-02T06:37:13.953Z,18.20
2018-06-02T06:39:49.338Z,18.40
2018-06-02T06:42:24.983Z,18.40
2018-06-02T06:44:59.467Z,18.40
2018-06-02T06:47:33.473Z,18.30
2018-06-02T06:50:07.137Z,18.20
2018-06-02T06:52:41.900Z,18.20
2018-06-02T06:55:16.550Z,18.20
2018-06-02T06:57:51.052Z,18.20
2018-06-02T07:00:26.741Z,18.30
2018-06-02T07:03:01.158Z,18.30
2018-06-02T07:05:38.998Z,18.30
2018-06-02T07:08:13.498Z,18.30
2018-06-02T07:10:48.043Z,18.30
2018-06-02T07:13:26.038Z,18.30
2018-06-02T07:16:00.857Z,18.20
2018-06-02T07:18:38.176Z,18.20
2018-06-02T07:21:13.330Z,18.30
2018-06-02T07:29:55.073Z,18.50
2018-06-02T07:32:30.159Z,18.50
2018-06-02T07:35:06.607Z,18.60
2018-06-02T07:37:40.498Z,18.60
2018-06-02T07:40:15.138Z,18.50
2018-06-02T07:42:48.663Z,18.40
2018-06-02T07:45:23.390Z,18.40
2018-06-02T07:48:01.169Z,18.40
2018-06-02T07:50:37.688Z,18.40
2018-06-02T07:53:12.997Z,18.50
2018-06-02T07:55:48.635Z,18.60
2018-06-02T07:58:24.886Z,18.60
2018-06-02T08:00:59.557Z,18.50
2018-06-02T08:03:35.613Z,18.50
2018-06-02T08:06:12.401Z,18.60
2018-06-02T08:08:46.208Z,18.70
2018-06-02T08:11:20.536Z,18.50
2018-06-02T08:13:55.404Z,18.50
2018-06-02T08:16:28.954Z,18.30
2018-06-02T08:19:07.375Z,18.30
2018-06-02T08:21:43.673Z,18.30
2018-06-02T08:24:20.728Z,18.30
2018-06-02T08:26:54.874Z,18.30
2018-06-02T08:29:29.169Z,18.30
2018-06-02T08:32:03.578Z,18.10
2018-06-02T08:34:43.806Z,18.10
2018-06-02T08:37:31.880Z,18.30
2018-06-02T08:40:07.413Z,18.20
2018-06-02T08:42:40.975Z,18.20
2018-06-02T08:45:22.077Z,18.20
2018-06-02T08:47:58.917Z,18.20
2018-06-02T08:50:39.023Z,18.20
2018-06-02T08:53:16.928Z,18.40
2018-06-02T08:55:50.536Z,18.60
2018-06-02T08:58:25.763Z,18.60
2018-06-02T09:00:59.253Z,18.50
2018-06-02T09:03:35.700Z,18.70
2018-06-02T09:06:11.266Z,18.60
2018-06-02T09:08:48.386Z,18.60
2018-06-02T09:11:24.125Z,18.50
2018-06-02T09:13:59.327Z,18.60
2018-06-02T09:16:33.216Z,18.70
2018-06-02T09:19:06.866Z,18.70
2018-06-02T09:21:41.630Z,18.70
2018-06-02T09:24:17.280Z,18.80
2018-06-02T09:26:51.412Z,19.00
2018-06-02T09:29:25.665Z,19.20
2018-06-02T09:32:01.950Z,19.30
2018-06-02T09:34:38.096Z,19.30
2018-06-02T09:37:13.572Z,19.40
2018-06-02T09:39:50.709Z,19.40
2018-06-02T09:42:26.354Z,19.50
2018-06-02T09:45:00.049Z,19.50
2018-06-02T09:47:34.182Z,19.30
2018-06-02T09:50:07.863Z,19.10
2018-06-02T09:52:41.863Z,19.20
2018-06-02T09:55:16.297Z,19.10
2018-06-02T09:57:50.047Z,19.10
2018-06-02T10:00:26.302Z,19.10
2018-06-02T10:02:59.836Z,19.00
2018-06-02T10:05:33.849Z,19.10
2018-06-02T10:08:08.452Z,19.20
2018-06-02T10:10:42.148Z,19.30
2018-06-02T10:13:16.931Z,19.10
2018-06-02T10:15:51.167Z,19.10
2018-06-02T10:18:27.875Z,19.20
2018-06-02T10:21:01.391Z,19.40
2018-06-02T10:23:35.880Z,19.60
2018-06-02T10:26:11.513Z,19.60
2018-06-02T10:28:45.208Z,19.60
2018-06-02T10:31:19.900Z,19.30
2018-06-02T10:33:55.110Z,19.80
2018-06-02T10:36:29.443Z,20.20
2018-06-02T10:39:03.682Z,20.60
2018-06-02T10:41:37.540Z,20.50
2018-06-02T10:44:12.205Z,20.70
2018-06-02T10:46:48.651Z,20.30
2018-06-02T10:49:23.707Z,20.10
2018-06-02T10:52:01.469Z,20.30
2018-06-02T10:54:37.819Z,20.20
2018-06-02T10:57:17.916Z,20.30
2018-06-02T10:59:52.899Z,20.30
2018-06-02T11:02:26.452Z,20.60
2018-06-02T11:07:53.580Z,20.60
2018-06-02T11:10:33.002Z,20.80
2018-06-02T11:13:08.317Z,21.10
2018-06-02T11:15:49.715Z,21.10
2018-06-02T11:18:24.740Z,21.20
2018-06-02T11:21:01.051Z,21.20
2018-06-02T11:23:37.148Z,20.80
2018-06-02T11:26:12.484Z,20.90
2018-06-02T11:28:46.908Z,20.70
2018-06-02T11:31:20.431Z,20.60
2018-06-02T11:33:55.561Z,20.40
2018-06-02T11:36:31.019Z,20.40
2018-06-02T11:39:05.574Z,19.80
2018-06-02T11:41:40.033Z,19.80
2018-06-02T11:44:14.671Z,20.00
2018-06-02T11:46:50.628Z,19.70
2018-06-02T11:49:25.242Z,19.70
2018-06-02T11:52:04.341Z,19.40
2018-06-02T11:54:38.365Z,19.40
2018-06-02T11:57:12.206Z,19.30
2018-06-02T11:59:46.484Z,19.20
2018-06-02T12:02:21.220Z,19.30
2018-06-02T12:04:54.847Z,19.20
2018-06-02T12:07:29.063Z,19.40
2018-06-02T12:10:06.270Z,19.40
2018-06-02T12:12:45.812Z,19.50
2018-06-02T12:15:22.340Z,19.80
2018-06-02T12:17:59.244Z,19.70
2018-06-02T12:20:34.741Z,19.50
2018-06-02T12:23:09.120Z,19.40
2018-06-02T12:25:43.307Z,19.40
2018-06-02T12:28:17.827Z,19.40
2018-06-02T12:30:51.386Z,19.40
2018-06-02T12:33:25.763Z,19.30
2018-06-02T12:36:02.448Z,19.30
2018-06-02T12:38:36.250Z,19.20
2018-06-02T12:41:14.817Z,19.10
2018-06-02T12:43:50.079Z,19.30
2018-06-02T12:46:26.373Z,19.30
2018-06-02T12:49:00.572Z,19.90
2018-06-02T12:51:34.292Z,20.90
2018-06-02T12:54:08.457Z,22.40
2018-06-02T12:56:42.209Z,23.60
2018-06-02T12:59:17.196Z,23.00
2018-06-02T13:01:50.720Z,22.60
2018-06-02T13:04:24.449Z,22.50
2018-06-02T13:06:58.038Z,22.30
2018-06-02T13:09:32.590Z,22.30
2018-06-02T13:12:06.363Z,22.00
2018-06-02T13:14:41.986Z,22.30
2018-06-02T13:17:15.445Z,21.70
2018-06-02T13:19:52.127Z,21.70
2018-06-02T13:22:26.762Z,21.50
2018-06-02T13:25:02.455Z,21.30
2018-06-02T13:27:36.004Z,21.20
2018-06-02T13:30:13.021Z,21.30
2018-06-02T13:32:46.658Z,21.90
2018-06-02T13:35:21.311Z,22.10
2018-06-02T13:37:54.972Z,21.90
2018-06-02T13:40:29.501Z,21.90
2018-06-02T13:43:04.041Z,22.00
2018-06-02T13:45:40.790Z,21.90
2018-06-02T13:48:14.817Z,21.90
2018-06-02T13:50:49.911Z,22.10
2018-06-02T13:53:23.848Z,22.30
2018-06-02T13:55:57.648Z,22.10
2018-06-02T13:58:32.341Z,22.00
2018-06-02T14:01:07.373Z,22.10
2018-06-02T14:03:43.180Z,22.40
2018-06-02T14:06:20.816Z,22.40
2018-06-02T14:11:40.097Z,22.30
2018-06-02T14:14:13.792Z,22.20
2018-06-02T14:16:47.366Z,21.90
2018-06-02T14:19:20.936Z,21.60
2018-06-02T14:21:54.766Z,21.60
2018-06-02T14:24:28.403Z,21.60
2018-06-02T14:29:42.094Z,21.00
2018-06-02T14:32:15.805Z,20.70
2018-06-02T14:34:49.512Z,20.70
2018-06-02T14:37:23.092Z,20.60
2018-06-02T14:39:58.421Z,20.40
2018-06-02T14:42:31.919Z,20.20
2018-06-02T14:45:05.953Z,20.10
2018-06-02T14:47:40.295Z,20.30
2018-06-02T14:50:18.563Z,20.20
2018-06-02T14:52:52.085Z,20.20
2018-06-02T14:55:25.638Z,20.20
2018-06-02T14:58:00.304Z,20.10
2018-06-02T15:00:34.868Z,20.20
2018-06-02T15:03:10.124Z,20.20
2018-06-02T15:08:25.259Z,20.30
2018-06-02T15:10:59.417Z,20.40
2018-06-02T15:13:33.952Z,20.30
2018-06-02T15:16:08.311Z,20.30
2018-06-02T15:18:41.973Z,20.30
2018-06-02T15:21:15.623Z,20.50
2018-06-02T15:23:49.893Z,20.60
2018-06-02T15:26:23.491Z,20.60
2018-06-02T15:28:57.011Z,20.50
2018-06-02T15:31:30.748Z,20.70
2018-06-02T15:34:05.360Z,21.00
2018-06-02T15:36:40.774Z,21.00
2018-06-02T15:39:16.853Z,20.80
2018-06-02T15:41:50.391Z,20.70
2018-06-02T15:44:25.949Z,20.60
2018-06-02T15:47:03.366Z,20.60
2018-06-02T15:49:38.431Z,20.50
2018-06-02T15:52:11.955Z,20.50
2018-06-02T15:54:45.512Z,20.60
2018-06-02T15:57:20.507Z,20.70
2018-06-02T15:59:55.282Z,20.70
2018-06-02T16:02:31.819Z,20.70
2018-06-02T16:05:06.161Z,20.60
2018-06-02T16:07:39.656Z,20.70
2018-06-02T16:10:13.173Z,20.70
2018-06-02T16:12:47.681Z,20.70
2018-06-02T16:15:21.211Z,20.60
2018-06-02T16:17:55.210Z,20.70
2018-06-02T16:20:28.890Z,20.70
2018-06-02T16:23:03.087Z,20.90
2018-06-02T16:25:36.590Z,20.90
2018-06-02T16:28:10.484Z,20.90
2018-06-02T16:30:45.043Z,21.00
2018-06-02T16:33:21.287Z,20.90
2018-06-02T16:35:56.215Z,20.90
2018-06-02T16:38:35.369Z,20.70
2018-06-02T16:41:11.021Z,20.80
2018-06-02T16:43:45.694Z,20.90
2018-06-02T16:46:20.067Z,21.00
2018-06-02T16:48:54.036Z,20.90
2018-06-02T16:51:29.321Z,20.80
2018-06-02T16:54:03.414Z,20.70
2018-06-02T16:56:38.756Z,20.80
2018-06-02T16:59:14.948Z,20.90
2018-06-02T17:01:50.074Z,20.90
2018-06-02T17:04:23.760Z,20.90
2018-06-02T17:06:58.204Z,21.00
2018-06-02T17:09:31.878Z,21.00
2018-06-02T17:12:05.480Z,21.00
2018-06-02T17:14:39.033Z,20.80
2018-06-02T17:17:12.689Z,20.70
2018-06-02T17:19:46.329Z,20.70
2018-06-02T17:22:19.939Z,20.90
2018-06-02T17:24:54.523Z,20.80
2018-06-02T17:27:28.052Z,20.70
2018-06-02T17:30:01.568Z,20.70
2018-06-02T17:32:35.219Z,20.60
2018-06-02T17:35:08.876Z,20.50
2018-06-02T17:37:42.500Z,20.60
2018-06-02T17:40:18.261Z,20.60
2018-06-02T17:42:53.073Z,20.60
2018-06-02T17:45:26.652Z,20.50
2018-06-02T17:48:00.186Z,20.40
2018-06-02T17:50:33.952Z,20.30
2018-06-02T17:53:07.496Z,20.30
2018-06-02T17:55:41.971Z,20.20
2018-06-02T17:58:16.640Z,20.20
2018-06-02T18:00:50.715Z,20.20
2018-06-02T18:03:24.474Z,20.10
2018-06-02T18:05:58.073Z,20.10
2018-06-02T18:08:31.669Z,20.00
2018-06-02T18:11:05.998Z,19.90
2018-06-02T18:13:40.111Z,19.90
2018-06-02T18:16:14.737Z,19.90
2018-06-02T18:18:49.339Z,19.90
2018-06-02T18:21:22.931Z,19.90
2018-06-02T18:23:56.407Z,19.90
2018-06-02T18:26:30.114Z,20.00
2018-06-02T18:29:04.619Z,19.90
2018-06-02T18:31:38.286Z,19.90
2018-06-02T18:34:12.186Z,19.90
2018-06-02T18:36:45.838Z,19.90
2018-06-02T18:39:20.235Z,19.90
2018-06-02T18:41:53.891Z,19.90
2018-06-02T18:44:28.688Z,19.90
2018-06-02T18:47:03.252Z,19.90
2018-06-02T18:49:38.541Z,19.90
2018-06-02T18:52:12.051Z,19.80
2018-06-02T18:54:46.571Z,19.70
2018-06-02T18:57:21.785Z,19.70
2018-06-02T18:59:57.519Z,19.70
2018-06-02T19:02:32.094Z,19.70
2018-06-02T19:05:06.605Z,19.70
2018-06-02T19:07:40.967Z,19.60
2018-06-02T19:10:15.338Z,19.70
2018-06-02T19:12:49.882Z,19.70
2018-06-02T19:15:24.385Z,19.60
2018-06-02T19:17:59.041Z,19.50
2018-06-02T19:20:32.659Z,19.50
2018-06-02T19:23:09.091Z,19.40
2018-06-02T19:25:44.109Z,19.40
2018-06-02T19:28:17.853Z,19.40
2018-06-02T19:30:51.373Z,19.40
2018-06-02T19:33:25.947Z,19.30
2018-06-02T19:35:59.769Z,19.30
2018-06-02T19:38:33.417Z,19.30
2018-06-02T19:41:07.879Z,19.20
2018-06-02T19:43:42.298Z,19.20
2018-06-02T19:46:16.026Z,19.20
2018-06-02T19:48:49.595Z,19.20
2018-06-02T19:51:23.531Z,19.20
2018-06-02T19:53:57.031Z,19.20
2018-06-02T19:56:30.776Z,19.20
2018-06-02T19:59:04.359Z,19.10
2018-06-02T20:01:37.956Z,19.10
2018-06-02T20:04:11.636Z,19.10
2018-06-02T20:06:45.151Z,19.00
2018-06-02T20:09:18.814Z,19.00
2018-06-02T20:11:52.558Z,19.00
2018-06-02T20:14:26.211Z,19.00
2018-06-02T20:16:59.839Z,19.00
2018-06-02T20:19:34.159Z,19.00
2018-06-02T20:22:07.645Z,18.90
2018-06-02T20:24:41.987Z,19.00
2018-06-02T20:27:15.483Z,18.90
2018-06-02T20:29:49.032Z,18.90
2018-06-02T20:32:22.863Z,18.90
2018-06-02T20:34:56.520Z,19.00
2018-06-02T20:37:30.131Z,18.90
2018-06-02T20:40:03.865Z,19.00
2018-06-02T20:42:37.425Z,19.00
2018-06-02T20:45:11.036Z,19.00
2018-06-02T20:47:45.520Z,19.00
2018-06-02T20:50:19.201Z,19.00
2018-06-02T20:52:52.735Z,19.00
2018-06-02T20:55:26.691Z,19.00
2018-06-02T20:58:01.237Z,19.00
2018-06-02T21:00:35.847Z,19.00
2018-06-02T21:03:09.791Z,19.00
2018-06-02T21:05:43.478Z,19.00
2018-06-02T21:08:17.937Z,19.00
2018-06-02T21:10:51.491Z,19.00
2018-06-02T21:13:25.700Z,19.00
2018-06-02T21:15:59.997Z,19.00
2018-06-02T21:18:34.349Z,19.00
2018-06-02T21:21:08.060Z,19.00
2018-06-02T21:23:41.957Z,19.00
2018-06-02T21:26:17.344Z,18.80
2018-06-02T21:28:51.841Z,18.80
2018-06-02T21:31:26.492Z,18.80
2018-06-02T21:34:00.120Z,18.80
2018-06-02T21:36:36.395Z,18.70
2018-06-02T21:39:09.979Z,18.70
2018-06-02T21:41:44.312Z,18.60
2018-06-02T21:44:19.364Z,18.50
2018-06-02T21:46:52.980Z,18.50
2018-06-02T21:49:27.320Z,18.40
2018-06-02T21:52:00.899Z,18.30
2018-06-02T21:54:35.743Z,18.20
2018-06-02T21:57:09.808Z,18.20
2018-06-02T21:59:45.781Z,18.10
2018-06-02T22:02:23.592Z,18.10
2018-06-02T22:04:58.013Z,18.00
2018-06-02T22:07:31.607Z,18.00
2018-06-02T22:10:05.624Z,18.00
2018-06-02T22:12:39.377Z,18.00
2018-06-02T22:15:13.313Z,18.00
2018-06-02T22:17:46.827Z,17.90
2018-06-02T22:20:20.473Z,17.90
2018-06-02T22:22:54.236Z,17.80
2018-06-02T22:25:27.952Z,17.80
2018-06-02T22:28:01.482Z,17.80
2018-06-02T22:30:35.461Z,17.70
2018-06-02T22:33:10.296Z,17.60
2018-06-02T22:35:44.674Z,17.60
2018-06-02T22:38:18.900Z,17.60
2018-06-02T22:40:52.762Z,17.60
2018-06-02T22:43:28.664Z,17.40
2018-06-02T22:46:02.299Z,17.40
2018-06-02T22:48:35.913Z,17.30
2018-06-02T22:51:09.511Z,17.40
2018-06-02T22:53:43.565Z,17.40
2018-06-02T22:56:17.373Z,17.40
2018-06-02T22:58:51.001Z,17.30
2018-06-02T23:01:24.739Z,17.30
2018-06-02T23:03:58.261Z,17.30
2018-06-02T23:06:31.802Z,17.30
2018-06-02T23:09:05.565Z,17.20
2018-06-02T23:11:39.760Z,17.20
2018-06-02T23:14:13.674Z,17.10
2018-06-02T23:16:47.175Z,17.10
2018-06-02T23:19:20.684Z,17.10
2018-06-02T23:21:54.372Z,17.10
2018-06-02T23:24:28.687Z,17.00
2018-06-02T23:27:02.330Z,17.00
2018-06-02T23:29:37.109Z,17.00
2018-06-02T23:32:10.624Z,17.00
2018-06-02T23:34:45.177Z,17.00
2018-06-02T23:37:18.751Z,17.00
2018-06-02T23:39:52.964Z,16.90
2018-06-02T23:42:27.184Z,16.90
2018-06-02T23:45:01.493Z,16.80
2018-06-02T23:47:35.803Z,16.80
2018-06-02T23:50:10.305Z,16.80
2018-06-02T23:52:44.037Z,16.80
2018-06-02T23:55:18.470Z,16.70
2018-06-02T23:57:52.015Z,16.70
